sensor_id;sensor_type;location;lat;lon;timestamp;pressure;altitude;pressure_sealevel;temperature;humidity
10261;BME280;5175;42.606;23.388;2022-10-03T00:02:49;93782.78;;;10.33;100.00
10261;BME280;5175;42.606;23.388;2022-10-03T00:05:35;93776.13;;;10.31;100.00
10261;BME280;5175;42.606;23.388;2022-10-03T00:08:13;93779.88;;;10.35;100.00
10261;BME280;5175;42.606;23.388;2022-10-03T00:10:52;93768.25;;;10.16;100.00
10261;BME280;5175;42.606;23.388;2022-10-03T00:13:24;93771.97;;;10.15;100.00
10261;BME280;5175;42.606;23.388;2022-10-03T00:16:07;93759.44;;;10.15;100.00
10261;BME280;5175;42.606;23.388;2022-10-03T00:18:44;93760.53;;;10.09;100.00
10261;BME280;5175;42.606;23.388;2022-10-03T00:21:21;93739.00;;;9.95;100.00
10261;BME280;5175;42.606;23.388;2022-10-03T00:23:59;93744.25;;;10.11;100.00
10261;BME280;5175;42.606;23.388;2022-10-03T00:26:39;93743.19;;;10.12;100.00
10261;BME280;5175;42.606;23.388;2022-10-03T00:29:30;93734.63;;;10.09;100.00
10261;BME280;5175;42.606;23.388;2022-10-03T00:32:19;93720.75;;;10.18;100.00
10261;BME280;5175;42.606;23.388;2022-10-03T00:35:00;93708.78;;;10.15;100.00
10261;BME280;5175;42.606;23.388;2022-10-03T00:37:33;93742.50;;;10.40;100.00
10261;BME280;5175;42.606;23.388;2022-10-03T00:46:41;93730.88;;;10.21;100.00
10261;BME280;5175;42.606;23.388;2022-10-03T00:49:48;93736.47;;;10.24;100.00
10261;BME280;5175;42.606;23.388;2022-10-03T00:52:46;93742.34;;;10.21;100.00
10261;BME280;5175;42.606;23.388;2022-10-03T00:55:22;93725.88;;;10.04;100.00
10261;BME280;5175;42.606;23.388;2022-10-03T00:58:13;93751.72;;;10.08;100.00
10261;BME280;5175;42.606;23.388;2022-10-03T01:00:49;93742.97;;;10.03;100.00
10261;BME280;5175;42.606;23.388;2022-10-03T01:03:29;93744.78;;;10.13;100.00
10261;BME280;5175;42.606;23.388;2022-10-03T01:06:15;93738.50;;;9.93;100.00
10261;BME280;5175;42.606;23.388;2022-10-03T01:09:00;93737.97;;;9.86;100.00
10261;BME280;5175;42.606;23.388;2022-10-03T01:11:42;93718.44;;;9.52;100.00
10261;BME280;5175;42.606;23.388;2022-10-03T01:14:25;93730.59;;;9.68;100.00
10261;BME280;5175;42.606;23.388;2022-10-03T01:17:04;93735.38;;;9.76;100.00
10261;BME280;5175;42.606;23.388;2022-10-03T01:19:49;93724.72;;;9.76;100.00
10261;BME280;5175;42.606;23.388;2022-10-03T01:25:18;93675.97;;;9.27;100.00
10261;BME280;5175;42.606;23.388;2022-10-03T01:27:58;93726.84;;;9.74;100.00
10261;BME280;5175;42.606;23.388;2022-10-03T01:30:50;93731.63;;;9.82;100.00
10261;BME280;5175;42.606;23.388;2022-10-03T01:33:26;93729.50;;;9.74;100.00
10261;BME280;5175;42.606;23.388;2022-10-03T01:35:57;93712.50;;;9.70;100.00
10261;BME280;5175;42.606;23.388;2022-10-03T01:38:35;93715.19;;;9.65;100.00
10261;BME280;5175;42.606;23.388;2022-10-03T01:41:12;93710.16;;;9.59;100.00
10261;BME280;5175;42.606;23.388;2022-10-03T01:43:43;93717.34;;;9.58;100.00
10261;BME280;5175;42.606;23.388;2022-10-03T01:46:16;93716.75;;;9.71;100.00
10261;BME280;5175;42.606;23.388;2022-10-03T01:48:53;93704.78;;;9.64;100.00
10261;BME280;5175;42.606;23.388;2022-10-03T01:51:28;93710.63;;;9.66;100.00
10261;BME280;5175;42.606;23.388;2022-10-03T01:54:03;93716.53;;;9.63;100.00
10261;BME280;5175;42.606;23.388;2022-10-03T01:56:35;93707.97;;;9.66;100.00
10261;BME280;5175;42.606;23.388;2022-10-03T01:59:07;93696.81;;;9.59;100.00
10261;BME280;5175;42.606;23.388;2022-10-03T02:01:47;93713.00;;;9.77;100.00
10261;BME280;5175;42.606;23.388;2022-10-03T02:04:22;93708.94;;;9.85;100.00
10261;BME280;5175;42.606;23.388;2022-10-03T02:07:01;93706.81;;;9.87;100.00
10261;BME280;5175;42.606;23.388;2022-10-03T02:09:35;93700.97;;;9.80;100.00
10261;BME280;5175;42.606;23.388;2022-10-03T02:12:09;93672.06;;;9.58;100.00
10261;BME280;5175;42.606;23.388;2022-10-03T02:14:48;93679.72;;;9.70;100.00
10261;BME280;5175;42.606;23.388;2022-10-03T02:17:29;93699.28;;;9.94;100.00
10261;BME280;5175;42.606;23.388;2022-10-03T02:20:17;93684.75;;;9.76;100.00
10261;BME280;5175;42.606;23.388;2022-10-03T02:22:49;93701.00;;;9.75;100.00
10261;BME280;5175;42.606;23.388;2022-10-03T02:25:24;93701.78;;;9.80;100.00
10261;BME280;5175;42.606;23.388;2022-10-03T02:28:27;93696.06;;;9.97;100.00
10261;BME280;5175;42.606;23.388;2022-10-03T02:31:29;93700.31;;;10.03;100.00
10261;BME280;5175;42.606;23.388;2022-10-03T02:34:16;93690.72;;;10.02;100.00
10261;BME280;5175;42.606;23.388;2022-10-03T02:40:10;93703.25;;;10.01;100.00
10261;BME280;5175;42.606;23.388;2022-10-03T02:43:10;93699.47;;;10.07;100.00
10261;BME280;5175;42.606;23.388;2022-10-03T02:52:28;93690.78;;;9.92;100.00
10261;BME280;5175;42.606;23.388;2022-10-03T02:55:22;93685.13;;;10.03;100.00
10261;BME280;5175;42.606;23.388;2022-10-03T02:58:19;93694.13;;;10.13;100.00
10261;BME280;5175;42.606;23.388;2022-10-03T03:01:36;93692.53;;;10.12;100.00
10261;BME280;5175;42.606;23.388;2022-10-03T03:07:24;93694.09;;;10.18;100.00
10261;BME280;5175;42.606;23.388;2022-10-03T03:10:12;93693.59;;;10.16;100.00
10261;BME280;5175;42.606;23.388;2022-10-03T03:19:40;93692.44;;;9.83;100.00
10261;BME280;5175;42.606;23.388;2022-10-03T03:22:22;93686.50;;;9.96;100.00
10261;BME280;5175;42.606;23.388;2022-10-03T03:25:29;93656.44;;;9.90;100.00
10261;BME280;5175;42.606;23.388;2022-10-03T03:28:09;93680.22;;;10.21;100.00
10261;BME280;5175;42.606;23.388;2022-10-03T03:30:46;93672.81;;;10.07;100.00
10261;BME280;5175;42.606;23.388;2022-10-03T03:33:24;93683.69;;;10.21;100.00
10261;BME280;5175;42.606;23.388;2022-10-03T03:36:01;93684.50;;;10.22;100.00
10261;BME280;5175;42.606;23.388;2022-10-03T03:38:36;93677.00;;;10.24;100.00
10261;BME280;5175;42.606;23.388;2022-10-03T03:41:20;93677.00;;;10.24;100.00
10261;BME280;5175;42.606;23.388;2022-10-03T03:44:02;93661.53;;;10.26;100.00
10261;BME280;5175;42.606;23.388;2022-10-03T03:46:42;93679.25;;;10.40;100.00
10261;BME280;5175;42.606;23.388;2022-10-03T03:49:30;93673.75;;;10.32;100.00
10261;BME280;5175;42.606;23.388;2022-10-03T03:52:21;93682.69;;;10.46;100.00
10261;BME280;5175;42.606;23.388;2022-10-03T03:55:04;93668.63;;;10.35;100.00
10261;BME280;5175;42.606;23.388;2022-10-03T03:57:58;93669.72;;;10.34;100.00
10261;BME280;5175;42.606;23.388;2022-10-03T04:00:39;93665.41;;;10.38;100.00
10261;BME280;5175;42.606;23.388;2022-10-03T04:03:23;93650.78;;;10.36;100.00
10261;BME280;5175;42.606;23.388;2022-10-03T04:06:10;93653.31;;;10.17;100.00
10261;BME280;5175;42.606;23.388;2022-10-03T04:08:52;93644.75;;;10.20;100.00
10261;BME280;5175;42.606;23.388;2022-10-03T04:11:34;93647.91;;;10.27;100.00
10261;BME280;5175;42.606;23.388;2022-10-03T04:14:22;93633.78;;;10.27;100.00
10261;BME280;5175;42.606;23.388;2022-10-03T04:17:06;93648.34;;;10.39;100.00
10261;BME280;5175;42.606;23.388;2022-10-03T04:20:09;93656.56;;;10.43;100.00
10261;BME280;5175;42.606;23.388;2022-10-03T04:22:49;93644.88;;;10.39;100.00
10261;BME280;5175;42.606;23.388;2022-10-03T04:25:29;93629.00;;;10.24;100.00
10261;BME280;5175;42.606;23.388;2022-10-03T04:28:14;93639.78;;;10.42;100.00
10261;BME280;5175;42.606;23.388;2022-10-03T04:31:00;93651.72;;;10.50;100.00
10261;BME280;5175;42.606;23.388;2022-10-03T04:33:40;93651.19;;;10.48;100.00
10261;BME280;5175;42.606;23.388;2022-10-03T04:39:24;93658.63;;;10.51;100.00
10261;BME280;5175;42.606;23.388;2022-10-03T04:41:57;93648.75;;;10.51;100.00
10261;BME280;5175;42.606;23.388;2022-10-03T04:44:38;93659.03;;;10.68;100.00
10261;BME280;5175;42.606;23.388;2022-10-03T04:47:17;93621.94;;;10.66;100.00
10261;BME280;5175;42.606;23.388;2022-10-03T04:49:50;93665.22;;;10.87;100.00
10261;BME280;5175;42.606;23.388;2022-10-03T04:52:26;93646.50;;;10.63;100.00
10261;BME280;5175;42.606;23.388;2022-10-03T04:55:03;93644.09;;;10.67;100.00
10261;BME280;5175;42.606;23.388;2022-10-03T04:57:36;93655.66;;;10.81;100.00
10261;BME280;5175;42.606;23.388;2022-10-03T05:00:20;93630.50;;;10.63;100.00
10261;BME280;5175;42.606;23.388;2022-10-03T05:02:54;93641.38;;;10.72;100.00
10261;BME280;5175;42.606;23.388;2022-10-03T05:05:31;93643.03;;;10.68;100.00
10261;BME280;5175;42.606;23.388;2022-10-03T05:08:06;93647.41;;;10.83;100.00
10261;BME280;5175;42.606;23.388;2022-10-03T05:10:54;93653.88;;;11.00;100.00
10261;BME280;5175;42.606;23.388;2022-10-03T05:13:32;93660.47;;;11.08;100.00
10261;BME280;5175;42.606;23.388;2022-10-03T05:16:08;93643.72;;;11.02;100.00
10261;BME280;5175;42.606;23.388;2022-10-03T05:18:47;93652.13;;;11.14;100.00
10261;BME280;5175;42.606;23.388;2022-10-03T05:21:23;93665.88;;;11.26;100.00
10261;BME280;5175;42.606;23.388;2022-10-03T05:23:57;93660.03;;;11.43;100.00
10261;BME280;5175;42.606;23.388;2022-10-03T05:26:40;93654.13;;;11.46;100.00
10261;BME280;5175;42.606;23.388;2022-10-03T05:29:16;93652.97;;;11.33;100.00
10261;BME280;5175;42.606;23.388;2022-10-03T05:31:54;93649.16;;;11.40;100.00
10261;BME280;5175;42.606;23.388;2022-10-03T05:34:33;93651.41;;;11.51;100.00
10261;BME280;5175;42.606;23.388;2022-10-03T05:37:29;93635.00;;;11.39;100.00
10261;BME280;5175;42.606;23.388;2022-10-03T05:40:03;93651.06;;;11.58;100.00
10261;BME280;5175;42.606;23.388;2022-10-03T05:42:55;93640.56;;;11.61;100.00
10261;BME280;5175;42.606;23.388;2022-10-03T05:45:29;93647.03;;;11.79;100.00
10261;BME280;5175;42.606;23.388;2022-10-03T05:48:12;93637.47;;;11.54;100.00
10261;BME280;5175;42.606;23.388;2022-10-03T05:51:05;93627.59;;;11.55;100.00
10261;BME280;5175;42.606;23.388;2022-10-03T05:56:55;93597.44;;;11.73;100.00
10261;BME280;5175;42.606;23.388;2022-10-03T05:59:35;93609.63;;;11.79;100.00
10261;BME280;5175;42.606;23.388;2022-10-03T06:02:37;93616.31;;;12.14;100.00
10261;BME280;5175;42.606;23.388;2022-10-03T06:05:14;93609.47;;;12.40;100.00
10261;BME280;5175;42.606;23.388;2022-10-03T06:10:49;93630.03;;;12.58;100.00
10261;BME280;5175;42.606;23.388;2022-10-03T06:13:30;93638.75;;;12.64;100.00
10261;BME280;5175;42.606;23.388;2022-10-03T06:16:12;93649.91;;;12.71;100.00
10261;BME280;5175;42.606;23.388;2022-10-03T06:19:01;93656.28;;;12.56;100.00
10261;BME280;5175;42.606;23.388;2022-10-03T06:28:09;93671.09;;;12.67;100.00
10261;BME280;5175;42.606;23.388;2022-10-03T06:31:03;93655.50;;;12.55;100.00
10261;BME280;5175;42.606;23.388;2022-10-03T06:34:01;93669.22;;;12.68;100.00
10261;BME280;5175;42.606;23.388;2022-10-03T06:36:58;93666.19;;;12.88;100.00
10261;BME280;5175;42.606;23.388;2022-10-03T06:43:11;93662.34;;;13.07;100.00
10261;BME280;5175;42.606;23.388;2022-10-03T06:46:10;93671.59;;;13.15;100.00
10261;BME280;5175;42.606;23.388;2022-10-03T06:49:21;93675.56;;;13.17;100.00
10261;BME280;5175;42.606;23.388;2022-10-03T06:52:17;93681.75;;;13.32;100.00
10261;BME280;5175;42.606;23.388;2022-10-03T07:01:27;93679.56;;;13.34;100.00
10261;BME280;5175;42.606;23.388;2022-10-03T07:04:12;93677.19;;;13.32;100.00
10261;BME280;5175;42.606;23.388;2022-10-03T07:07:07;93690.06;;;13.44;100.00
10261;BME280;5175;42.606;23.388;2022-10-03T07:10:03;93686.91;;;13.42;100.00
10261;BME280;5175;42.606;23.388;2022-10-03T07:19:06;93720.16;;;13.27;100.00
10261;BME280;5175;42.606;23.388;2022-10-03T07:22:10;93730.09;;;13.40;100.00
10261;BME280;5175;42.606;23.388;2022-10-03T07:25:09;93736.75;;;13.43;100.00
10261;BME280;5175;42.606;23.388;2022-10-03T07:27:50;93742.34;;;13.28;100.00
10261;BME280;5175;42.606;23.388;2022-10-03T07:30:23;93751.09;;;13.33;100.00
10261;BME280;5175;42.606;23.388;2022-10-03T07:36:31;93779.47;;;13.21;100.00
10261;BME280;5175;42.606;23.388;2022-10-03T07:39:32;93782.16;;;13.02;100.00
10261;BME280;5175;42.606;23.388;2022-10-03T07:45:36;93778.50;;;12.79;100.00
10261;BME280;5175;42.606;23.388;2022-10-03T07:48:34;93782.47;;;12.82;100.00
10261;BME280;5175;42.606;23.388;2022-10-03T07:51:14;93778.56;;;12.93;100.00
10261;BME280;5175;42.606;23.388;2022-10-03T07:54:11;93786.19;;;12.67;100.00
10261;BME280;5175;42.606;23.388;2022-10-03T07:57:02;93782.22;;;12.65;100.00
10261;BME280;5175;42.606;23.388;2022-10-03T08:02:36;93785.16;;;12.82;100.00
10261;BME280;5175;42.606;23.388;2022-10-03T08:05:16;93783.13;;;12.18;98.22
10261;BME280;5175;42.606;23.388;2022-10-03T08:08:21;93769.63;;;12.09;100.00
10261;BME280;5175;42.606;23.388;2022-10-03T08:11:09;93771.34;;;12.00;100.00
10261;BME280;5175;42.606;23.388;2022-10-03T08:16:51;93766.19;;;11.85;100.00
10261;BME280;5175;42.606;23.388;2022-10-03T08:19:38;93760.38;;;12.20;100.00
10261;BME280;5175;42.606;23.388;2022-10-03T08:22:19;93769.22;;;12.39;100.00
10261;BME280;5175;42.606;23.388;2022-10-03T08:28:01;93777.59;;;12.70;100.00
10261;BME280;5175;42.606;23.388;2022-10-03T08:30:37;93785.19;;;12.63;100.00
10261;BME280;5175;42.606;23.388;2022-10-03T08:33:27;93775.63;;;12.57;100.00
10261;BME280;5175;42.606;23.388;2022-10-03T08:36:31;93790.22;;;12.83;100.00
10261;BME280;5175;42.606;23.388;2022-10-03T08:39:10;93793.88;;;13.06;100.00
10261;BME280;5175;42.606;23.388;2022-10-03T08:42:11;93784.31;;;13.18;100.00
10261;BME280;5175;42.606;23.388;2022-10-03T08:45:10;93786.38;;;13.08;100.00
10261;BME280;5175;42.606;23.388;2022-10-03T08:48:31;93782.81;;;13.12;100.00
10261;BME280;5175;42.606;23.388;2022-10-03T08:51:16;93794.38;;;13.27;100.00
10261;BME280;5175;42.606;23.388;2022-10-03T08:54:03;93784.84;;;13.34;100.00
10261;BME280;5175;42.606;23.388;2022-10-03T08:56:47;93789.31;;;13.39;100.00
10261;BME280;5175;42.606;23.388;2022-10-03T08:59:45;93791.44;;;13.55;100.00
10261;BME280;5175;42.606;23.388;2022-10-03T09:02:49;93776.75;;;13.94;100.00
10261;BME280;5175;42.606;23.388;2022-10-03T09:08:48;93775.56;;;14.40;100.00
10261;BME280;5175;42.606;23.388;2022-10-03T09:11:48;93785.13;;;14.91;100.00
10261;BME280;5175;42.606;23.388;2022-10-03T09:14:41;93781.69;;;14.77;100.00
10261;BME280;5175;42.606;23.388;2022-10-03T09:17:48;93771.69;;;14.91;100.00
10261;BME280;5175;42.606;23.388;2022-10-03T09:20:46;93775.53;;;15.21;100.00
10261;BME280;5175;42.606;23.388;2022-10-03T09:23:33;93777.06;;;15.13;100.00
10261;BME280;5175;42.606;23.388;2022-10-03T09:26:26;93779.81;;;15.22;100.00
10261;BME280;5175;42.606;23.388;2022-10-03T09:29:25;93779.56;;;15.32;100.00
10261;BME280;5175;42.606;23.388;2022-10-03T09:32:19;93773.56;;;15.35;100.00
10261;BME280;5175;42.606;23.388;2022-10-03T09:35:26;93773.97;;;15.20;100.00
10261;BME280;5175;42.606;23.388;2022-10-03T09:38:35;93770.94;;;15.21;100.00
10261;BME280;5175;42.606;23.388;2022-10-03T09:44:47;93784.38;;;15.21;100.00
10261;BME280;5175;42.606;23.388;2022-10-03T09:47:48;93785.59;;;15.37;100.00
10261;BME280;5175;42.606;23.388;2022-10-03T09:54:15;93782.13;;;15.37;100.00
10261;BME280;5175;42.606;23.388;2022-10-03T09:57:18;93781.38;;;15.45;100.00
10261;BME280;5175;42.606;23.388;2022-10-03T10:00:13;93789.03;;;15.51;100.00
10261;BME280;5175;42.606;23.388;2022-10-03T10:03:19;93783.25;;;15.44;100.00
10261;BME280;5175;42.606;23.388;2022-10-03T10:12:08;93777.81;;;15.36;100.00
10261;BME280;5175;42.606;23.388;2022-10-03T10:15:01;93786.28;;;15.43;100.00
10261;BME280;5175;42.606;23.388;2022-10-03T10:21:08;93789.69;;;15.13;100.00
10261;BME280;5175;42.606;23.388;2022-10-03T10:23:54;93788.13;;;15.12;100.00
10261;BME280;5175;42.606;23.388;2022-10-03T10:30:02;93780.19;;;15.07;100.00
10261;BME280;5175;42.606;23.388;2022-10-03T10:33:09;93792.78;;;15.20;100.00
10261;BME280;5175;42.606;23.388;2022-10-03T10:54:51;93799.50;;;15.61;100.00
10261;BME280;5175;42.606;23.388;2022-10-03T10:57:46;93796.06;;;15.70;100.00
10261;BME280;5175;42.606;23.388;2022-10-03T11:00:24;93794.31;;;15.65;100.00
10261;BME280;5175;42.606;23.388;2022-10-03T11:06:50;93789.25;;;15.41;97.18
10261;BME280;5175;42.606;23.388;2022-10-03T11:09:35;93800.75;;;15.11;99.26
10261;BME280;5175;42.606;23.388;2022-10-03T11:12:44;93792.25;;;15.18;100.00
10261;BME280;5175;42.606;23.388;2022-10-03T11:25:31;93800.41;;;15.48;99.10
10261;BME280;5175;42.606;23.388;2022-10-03T11:28:44;93795.41;;;15.64;100.00
10261;BME280;5175;42.606;23.388;2022-10-03T11:31:47;93791.41;;;15.53;100.00
10261;BME280;5175;42.606;23.388;2022-10-03T11:35:12;93804.59;;;15.41;100.00
10261;BME280;5175;42.606;23.388;2022-10-03T11:37:50;93805.91;;;15.21;100.00
10261;BME280;5175;42.606;23.388;2022-10-03T11:40:26;93803.44;;;15.11;100.00
10261;BME280;5175;42.606;23.388;2022-10-03T11:46:18;93811.81;;;15.54;100.00
10261;BME280;5175;42.606;23.388;2022-10-03T11:48:52;93792.03;;;15.50;100.00
10261;BME280;5175;42.606;23.388;2022-10-03T11:51:35;93783.97;;;15.28;98.53
10261;BME280;5175;42.606;23.388;2022-10-03T11:54:10;93800.19;;;15.45;94.63
10261;BME280;5175;42.606;23.388;2022-10-03T11:56:45;93801.13;;;15.40;83.39
10261;BME280;5175;42.606;23.388;2022-10-03T11:59:29;93798.50;;;15.49;80.07
10261;BME280;5175;42.606;23.388;2022-10-03T12:02:08;93809.13;;;15.54;78.72
10261;BME280;5175;42.606;23.388;2022-10-03T12:04:45;93798.44;;;15.40;77.52
10261;BME280;5175;42.606;23.388;2022-10-03T12:07:25;93802.34;;;15.34;76.82
10261;BME280;5175;42.606;23.388;2022-10-03T12:10:22;93799.44;;;15.75;80.24
10261;BME280;5175;42.606;23.388;2022-10-03T12:12:56;93816.47;;;16.49;74.86
10261;BME280;5175;42.606;23.388;2022-10-03T12:15:31;93814.44;;;16.55;73.89
10261;BME280;5175;42.606;23.388;2022-10-03T12:18:05;93810.78;;;16.51;71.50
10261;BME280;5175;42.606;23.388;2022-10-03T12:20:46;93811.00;;;16.23;72.99
10261;BME280;5175;42.606;23.388;2022-10-03T12:23:29;93815.81;;;15.96;74.28
10261;BME280;5175;42.606;23.388;2022-10-03T12:26:01;93805.44;;;15.72;76.37
10261;BME280;5175;42.606;23.388;2022-10-03T12:28:35;93806.91;;;16.17;77.30
10261;BME280;5175;42.606;23.388;2022-10-03T12:31:11;93818.78;;;16.34;74.98
10261;BME280;5175;42.606;23.388;2022-10-03T12:33:50;93808.22;;;16.46;75.00
10261;BME280;5175;42.606;23.388;2022-10-03T12:36:24;93807.53;;;16.88;73.51
10261;BME280;5175;42.606;23.388;2022-10-03T12:39:06;93807.50;;;17.05;71.46
10261;BME280;5175;42.606;23.388;2022-10-03T12:42:02;93824.50;;;16.97;68.59
10261;BME280;5175;42.606;23.388;2022-10-03T12:44:43;93827.84;;;16.46;65.24
10261;BME280;5175;42.606;23.388;2022-10-03T12:47:25;93812.59;;;16.24;67.84
10261;BME280;5175;42.606;23.388;2022-10-03T12:49:57;93807.81;;;16.78;67.89
10261;BME280;5175;42.606;23.388;2022-10-03T12:52:30;93794.03;;;17.22;61.97
10261;BME280;5175;42.606;23.388;2022-10-03T12:55:09;93788.28;;;17.58;60.10
10261;BME280;5175;42.606;23.388;2022-10-03T12:57:48;93806.84;;;18.14;58.60
10261;BME280;5175;42.606;23.388;2022-10-03T13:00:22;93803.63;;;17.75;57.25
10261;BME280;5175;42.606;23.388;2022-10-03T13:06:08;93804.78;;;17.57;57.43
10261;BME280;5175;42.606;23.388;2022-10-03T13:08:48;93813.84;;;17.35;56.81
10261;BME280;5175;42.606;23.388;2022-10-03T13:11:27;93802.13;;;16.71;58.51
10261;BME280;5175;42.606;23.388;2022-10-03T13:14:21;93816.56;;;16.92;57.70
10261;BME280;5175;42.606;23.388;2022-10-03T13:17:01;93811.44;;;17.50;57.42
10261;BME280;5175;42.606;23.388;2022-10-03T13:19:38;93808.63;;;18.02;54.20
10261;BME280;5175;42.606;23.388;2022-10-03T13:22:25;93819.16;;;18.33;53.65
10261;BME280;5175;42.606;23.388;2022-10-03T13:24:59;93814.06;;;17.85;52.68
10261;BME280;5175;42.606;23.388;2022-10-03T13:27:34;93813.88;;;17.18;54.50
10261;BME280;5175;42.606;23.388;2022-10-03T13:30:05;93810.03;;;17.10;57.55
10261;BME280;5175;42.606;23.388;2022-10-03T13:32:41;93815.56;;;17.74;54.74
10261;BME280;5175;42.606;23.388;2022-10-03T13:35:31;93812.44;;;18.01;53.31
10261;BME280;5175;42.606;23.388;2022-10-03T13:38:43;93818.91;;;17.36;54.38
10261;BME280;5175;42.606;23.388;2022-10-03T13:41:24;93802.44;;;16.86;55.88
10261;BME280;5175;42.606;23.388;2022-10-03T13:43:56;93787.84;;;17.13;57.46
10261;BME280;5175;42.606;23.388;2022-10-03T13:46:29;93811.00;;;17.23;56.78
10261;BME280;5175;42.606;23.388;2022-10-03T13:49:02;93804.34;;;17.03;59.11
10261;BME280;5175;42.606;23.388;2022-10-03T13:51:41;93804.03;;;17.56;56.52
10261;BME280;5175;42.606;23.388;2022-10-03T13:54:16;93811.69;;;18.30;58.99
10261;BME280;5175;42.606;23.388;2022-10-03T13:56:52;93811.84;;;18.92;52.70
10261;BME280;5175;42.606;23.388;2022-10-03T13:59:38;93805.91;;;19.40;50.44
10261;BME280;5175;42.606;23.388;2022-10-03T14:02:55;93787.06;;;19.76;50.33
10261;BME280;5175;42.606;23.388;2022-10-03T14:08:58;93779.91;;;19.06;50.85
10261;BME280;5175;42.606;23.388;2022-10-03T14:11:36;93792.22;;;18.53;48.50
10261;BME280;5175;42.606;23.388;2022-10-03T14:14:22;93798.78;;;18.94;49.43
10261;BME280;5175;42.606;23.388;2022-10-03T14:16:56;93803.72;;;19.33;47.51
10261;BME280;5175;42.606;23.388;2022-10-03T14:19:30;93809.38;;;18.99;46.72
10261;BME280;5175;42.606;23.388;2022-10-03T14:22:18;93812.47;;;19.30;48.69
10261;BME280;5175;42.606;23.388;2022-10-03T14:25:08;93807.53;;;19.32;49.58
10261;BME280;5175;42.606;23.388;2022-10-03T14:27:46;93816.09;;;19.87;50.57
10261;BME280;5175;42.606;23.388;2022-10-03T14:30:15;93820.50;;;18.56;48.07
10261;BME280;5175;42.606;23.388;2022-10-03T14:32:49;93823.97;;;18.19;50.28
10261;BME280;5175;42.606;23.388;2022-10-03T14:35:32;93815.94;;;18.39;48.86
10261;BME280;5175;42.606;23.388;2022-10-03T14:40:51;93821.78;;;17.40;50.92
10261;BME280;5175;42.606;23.388;2022-10-03T14:43:32;93813.53;;;17.19;50.43
10261;BME280;5175;42.606;23.388;2022-10-03T14:46:01;93808.44;;;16.75;52.42
10261;BME280;5175;42.606;23.388;2022-10-03T14:48:33;93814.66;;;16.92;53.55
10261;BME280;5175;42.606;23.388;2022-10-03T14:51:09;93817.91;;;17.75;51.47
10261;BME280;5175;42.606;23.388;2022-10-03T14:53:38;93815.25;;;18.13;52.02
10261;BME280;5175;42.606;23.388;2022-10-03T14:56:13;93828.66;;;17.92;51.21
10261;BME280;5175;42.606;23.388;2022-10-03T14:58:44;93846.22;;;17.35;51.49
10261;BME280;5175;42.606;23.388;2022-10-03T15:01:14;93822.63;;;16.41;53.87
10261;BME280;5175;42.606;23.388;2022-10-03T15:03:52;93825.31;;;16.33;55.65
10261;BME280;5175;42.606;23.388;2022-10-03T15:06:47;93825.69;;;16.09;57.08
10261;BME280;5175;42.606;23.388;2022-10-03T15:09:21;93820.94;;;15.75;58.67
10261;BME280;5175;42.606;23.388;2022-10-03T15:11:53;93780.78;;;15.26;61.03
10261;BME280;5175;42.606;23.388;2022-10-03T15:14:25;93807.75;;;15.12;64.47
10261;BME280;5175;42.606;23.388;2022-10-03T15:16:54;93800.13;;;14.70;66.57
10261;BME280;5175;42.606;23.388;2022-10-03T15:19:27;93790.47;;;14.06;70.74
10261;BME280;5175;42.606;23.388;2022-10-03T15:22:05;93770.59;;;13.79;71.32
10261;BME280;5175;42.606;23.388;2022-10-03T15:24:39;93807.34;;;13.93;70.92
10261;BME280;5175;42.606;23.388;2022-10-03T15:27:15;93797.22;;;13.90;70.32
10261;BME280;5175;42.606;23.388;2022-10-03T15:29:46;93815.28;;;13.84;66.60
10261;BME280;5175;42.606;23.388;2022-10-03T15:32:21;93818.59;;;13.81;64.95
10261;BME280;5175;42.606;23.388;2022-10-03T15:34:55;93822.97;;;13.91;64.79
10261;BME280;5175;42.606;23.388;2022-10-03T15:37:28;93817.38;;;13.87;66.56
10261;BME280;5175;42.606;23.388;2022-10-03T15:40:04;93822.47;;;13.89;66.79
10261;BME280;5175;42.606;23.388;2022-10-03T15:42:46;93822.75;;;14.01;65.80
10261;BME280;5175;42.606;23.388;2022-10-03T15:45:18;93836.38;;;14.04;65.23
10261;BME280;5175;42.606;23.388;2022-10-03T15:47:48;93836.56;;;14.08;64.73
10261;BME280;5175;42.606;23.388;2022-10-03T15:50:18;93839.66;;;14.01;66.62
10261;BME280;5175;42.606;23.388;2022-10-03T15:52:49;93844.63;;;13.94;67.17
10261;BME280;5175;42.606;23.388;2022-10-03T15:55:20;93836.19;;;13.41;66.27
10261;BME280;5175;42.606;23.388;2022-10-03T15:57:53;93831.56;;;13.28;67.05
10261;BME280;5175;42.606;23.388;2022-10-03T16:00:27;93861.88;;;13.10;66.74
10261;BME280;5175;42.606;23.388;2022-10-03T16:03:02;93834.38;;;12.86;68.47
10261;BME280;5175;42.606;23.388;2022-10-03T16:05:32;93850.38;;;12.91;68.75
10261;BME280;5175;42.606;23.388;2022-10-03T16:08:05;93850.88;;;12.93;68.38
10261;BME280;5175;42.606;23.388;2022-10-03T16:10:37;93841.53;;;12.72;69.55
10261;BME280;5175;42.606;23.388;2022-10-03T16:13:17;93843.97;;;12.87;69.46
10261;BME280;5175;42.606;23.388;2022-10-03T16:16:02;93851.38;;;12.76;70.45
10261;BME280;5175;42.606;23.388;2022-10-03T16:21:43;93858.47;;;12.86;71.12
10261;BME280;5175;42.606;23.388;2022-10-03T16:24:30;93870.19;;;12.90;70.89
10261;BME280;5175;42.606;23.388;2022-10-03T16:27:06;93868.38;;;12.85;71.97
10261;BME280;5175;42.606;23.388;2022-10-03T16:29:36;93869.69;;;12.88;71.53
10261;BME280;5175;42.606;23.388;2022-10-03T16:32:09;93876.19;;;12.82;72.13
10261;BME280;5175;42.606;23.388;2022-10-03T16:34:43;93870.56;;;12.83;72.36
10261;BME280;5175;42.606;23.388;2022-10-03T16:37:16;93873.75;;;12.85;72.47
10261;BME280;5175;42.606;23.388;2022-10-03T16:39:51;93875.25;;;12.73;73.75
10261;BME280;5175;42.606;23.388;2022-10-03T16:42:23;93880.25;;;12.79;74.19
10261;BME280;5175;42.606;23.388;2022-10-03T16:44:53;93880.97;;;12.85;75.07
10261;BME280;5175;42.606;23.388;2022-10-03T16:47:32;93872.44;;;12.83;75.83